createdAt,value
2022-08-30T00:00:40.714Z,19.68
2022-08-30T00:02:43.837Z,19.65
2022-08-30T00:04:45.974Z,19.63
2022-08-30T00:06:47.889Z,19.60
2022-08-30T00:08:50.563Z,19.58
2022-08-30T00:10:52.923Z,19.56
2022-08-30T00:12:56.248Z,19.58
2022-08-30T00:14:59.094Z,19.53
2022-08-30T00:17:04.504Z,19.51
2022-08-30T00:19:06.569Z,19.55
2022-08-30T00:21:15.477Z,19.56
2022-08-30T00:23:19.202Z,19.52
2022-08-30T00:25:21.694Z,19.50
2022-08-30T00:27:23.593Z,19.45
2022-08-30T00:29:25.665Z,19.45
2022-08-30T00:31:27.840Z,19.44
2022-08-30T00:33:30.738Z,19.45
2022-08-30T00:35:33.104Z,19.39
2022-08-30T00:37:35.405Z,19.39
2022-08-30T00:39:37.339Z,19.32
2022-08-30T00:41:39.561Z,19.32
2022-08-30T00:43:42.227Z,19.28
2022-08-30T00:45:44.334Z,19.14
2022-08-30T00:47:46.617Z,19.21
2022-08-30T00:49:51.767Z,19.19
2022-08-30T00:51:54.178Z,19.24
2022-08-30T00:53:57.319Z,19.11
2022-08-30T00:56:00.894Z,19.08
2022-08-30T00:58:06.979Z,19.08
2022-08-30T01:00:10.103Z,19.07
2022-08-30T01:02:12.940Z,19.00
2022-08-30T01:04:17.252Z,19.02
2022-08-30T01:06:19.857Z,19.00
2022-08-30T01:08:22.542Z,18.99
2022-08-30T01:10:24.709Z,19.02
2022-08-30T01:12:26.841Z,19.02
2022-08-30T01:14:28.942Z,18.97
2022-08-30T01:16:33.941Z,18.97
2022-08-30T01:18:37.454Z,18.96
2022-08-30T01:20:52.240Z,18.96
2022-08-30T01:22:54.140Z,18.88
2022-08-30T01:24:59.426Z,18.92
2022-08-30T01:27:01.484Z,18.87
2022-08-30T01:29:12.818Z,18.89
2022-08-30T01:31:16.150Z,18.87
2022-08-30T01:33:20.334Z,18.86
2022-08-30T01:35:22.553Z,18.85
2022-08-30T01:37:30.418Z,18.84
2022-08-30T01:39:33.457Z,18.83
2022-08-30T01:41:36.476Z,18.82
2022-08-30T01:43:39.223Z,18.79
2022-08-30T01:45:41.802Z,18.85
2022-08-30T01:47:43.845Z,18.80
2022-08-30T01:49:47.092Z,18.77
2022-08-30T01:51:49.158Z,18.78
2022-08-30T01:53:55.516Z,18.78
2022-08-30T01:55:57.588Z,18.80
2022-08-30T01:57:59.731Z,18.76
2022-08-30T02:00:01.761Z,18.82
2022-08-30T02:02:05.249Z,18.76
2022-08-30T02:04:09.828Z,18.75
2022-08-30T02:06:14.876Z,18.72
2022-08-30T02:08:16.906Z,18.74
2022-08-30T02:10:18.841Z,18.71
2022-08-30T02:12:21.093Z,18.73
2022-08-30T02:14:23.058Z,18.69
2022-08-30T02:16:25.896Z,18.69
2022-08-30T02:18:28.041Z,18.73
2022-08-30T02:20:30.093Z,18.75
2022-08-30T02:22:32.252Z,18.75
2022-08-30T02:24:34.244Z,18.77
2022-08-30T02:26:36.733Z,18.72
2022-08-30T02:28:49.709Z,18.75
2022-08-30T02:30:53.146Z,18.74
2022-08-30T02:32:55.180Z,18.79
2022-08-30T02:34:57.188Z,18.77
2022-08-30T02:36:59.266Z,18.77
2022-08-30T02:39:01.374Z,18.79
2022-08-30T02:41:13.159Z,18.75
2022-08-30T02:43:16.037Z,18.81
2022-08-30T02:45:18.386Z,18.82
2022-08-30T02:47:21.424Z,18.81
2022-08-30T02:49:33.185Z,18.83
2022-08-30T02:51:36.172Z,18.83
2022-08-30T02:53:39.519Z,18.82
2022-08-30T02:55:41.535Z,18.81
2022-08-30T02:57:44.729Z,18.83
2022-08-30T02:59:48.102Z,18.80
2022-08-30T03:01:50.556Z,18.78
2022-08-30T03:03:52.668Z,18.82
2022-08-30T03:05:54.611Z,18.86
2022-08-30T03:07:56.848Z,18.78
2022-08-30T03:09:58.928Z,18.75
2022-08-30T03:12:01.421Z,18.70
2022-08-30T03:14:04.150Z,18.66
2022-08-30T03:16:06.104Z,18.67
2022-08-30T03:18:11.106Z,18.69
2022-08-30T03:20:14.141Z,18.62
2022-08-30T03:22:16.191Z,18.65
2022-08-30T03:24:18.675Z,18.65
2022-08-30T03:26:20.604Z,18.62
2022-08-30T03:28:22.337Z,18.57
2022-08-30T03:30:24.164Z,18.56
2022-08-30T03:32:26.193Z,18.56
2022-08-30T03:34:28.322Z,18.54
2022-08-30T03:36:30.181Z,18.49
2022-08-30T03:38:31.956Z,18.49
2022-08-30T03:40:33.861Z,18.48
2022-08-30T03:42:36.169Z,18.47
2022-08-30T03:44:38.697Z,18.43
2022-08-30T03:46:45.208Z,18.40
2022-08-30T03:48:47.228Z,18.44
2022-08-30T03:50:49.146Z,18.42
2022-08-30T03:52:51.229Z,18.42
2022-08-30T03:54:53.104Z,18.37
2022-08-30T03:56:54.968Z,18.36
2022-08-30T03:58:57.149Z,18.29
2022-08-30T04:00:59.138Z,18.31
2022-08-30T04:03:01.165Z,18.29
2022-08-30T04:05:03.844Z,18.26
2022-08-30T04:07:05.921Z,18.24
2022-08-30T04:09:07.890Z,18.24
2022-08-30T04:11:09.757Z,18.25
2022-08-30T04:13:11.619Z,18.22
2022-08-30T04:15:14.579Z,18.25
2022-08-30T04:17:16.429Z,18.24
2022-08-30T04:19:18.946Z,18.21
2022-08-30T04:21:20.900Z,18.26
2022-08-30T04:23:25.044Z,18.23
2022-08-30T04:25:26.986Z,18.24
2022-08-30T04:27:28.929Z,18.15
2022-08-30T04:29:30.956Z,18.20
2022-08-30T04:31:33.065Z,18.21
2022-08-30T04:33:35.809Z,18.22
2022-08-30T04:35:48.850Z,18.17
2022-08-30T04:37:51.073Z,18.18
2022-08-30T04:39:57.879Z,18.12
2022-08-30T04:41:59.917Z,18.16
2022-08-30T04:44:03.664Z,18.20
2022-08-30T04:46:08.040Z,18.17
2022-08-30T04:48:10.527Z,18.16
2022-08-30T04:50:15.888Z,18.21
2022-08-30T04:52:17.954Z,18.17
2022-08-30T04:54:19.951Z,18.17
2022-08-30T04:56:24.053Z,18.21
2022-08-30T04:58:26.277Z,18.26
2022-08-30T05:00:28.243Z,18.22
2022-08-30T05:02:30.261Z,18.17
2022-08-30T05:04:32.251Z,18.22
2022-08-30T05:06:34.499Z,18.23
2022-08-30T05:08:36.497Z,18.23
2022-08-30T05:10:40.869Z,18.23
2022-08-30T05:12:43.596Z,18.21
2022-08-30T05:14:45.399Z,18.26
2022-08-30T05:16:48.100Z,18.27
2022-08-30T05:18:51.174Z,18.28
2022-08-30T05:21:10.881Z,18.25
2022-08-30T05:23:12.914Z,18.28
2022-08-30T05:25:15.590Z,18.26
2022-08-30T05:27:17.700Z,18.28
2022-08-30T05:29:22.267Z,18.35
2022-08-30T05:31:34.693Z,18.34
2022-08-30T05:33:38.889Z,18.32
2022-08-30T05:35:41.023Z,18.32
2022-08-30T05:37:43.451Z,18.33
2022-08-30T05:39:51.116Z,18.35
2022-08-30T05:41:59.655Z,18.33
2022-08-30T05:44:02.869Z,18.36
2022-08-30T05:46:07.709Z,18.35
2022-08-30T05:48:09.771Z,18.35
2022-08-30T05:50:15.273Z,18.38
2022-08-30T05:52:18.320Z,18.39
2022-08-30T05:54:20.125Z,18.43
2022-08-30T05:56:26.015Z,18.39
2022-08-30T05:58:27.705Z,18.46
2022-08-30T06:00:31.040Z,18.49
2022-08-30T06:02:33.289Z,18.52
2022-08-30T06:04:36.804Z,18.52
2022-08-30T06:06:44.209Z,18.53
2022-08-30T06:08:47.497Z,18.54
2022-08-30T06:10:49.323Z,18.56
2022-08-30T06:12:51.063Z,18.61
2022-08-30T06:14:53.635Z,18.63
2022-08-30T06:16:55.498Z,18.65
2022-08-30T06:18:58.934Z,18.64
2022-08-30T06:21:00.757Z,18.68
2022-08-30T06:23:02.622Z,18.67
2022-08-30T06:25:05.029Z,18.67
2022-08-30T06:27:06.757Z,18.69
2022-08-30T06:29:10.882Z,18.75
2022-08-30T06:31:15.458Z,18.77
2022-08-30T06:33:17.149Z,18.76
2022-08-30T06:35:19.983Z,18.70
2022-08-30T06:37:24.607Z,18.78
2022-08-30T06:39:31.905Z,18.82
2022-08-30T06:41:35.912Z,18.84
2022-08-30T06:43:39.020Z,18.84
2022-08-30T06:45:43.353Z,18.91
2022-08-30T06:47:46.951Z,18.93
2022-08-30T06:49:50.433Z,18.91
2022-08-30T06:51:54.014Z,18.95
2022-08-30T06:53:57.203Z,18.94
2022-08-30T06:56:05.152Z,18.97
2022-08-30T06:58:07.433Z,18.95
2022-08-30T07:00:14.581Z,18.95
2022-08-30T07:02:17.130Z,18.97
2022-08-30T07:04:19.638Z,19.00
2022-08-30T07:06:26.934Z,19.04
2022-08-30T07:08:29.576Z,19.08
2022-08-30T07:10:34.073Z,19.12
2022-08-30T07:12:43.247Z,19.15
2022-08-30T07:14:45.535Z,19.22
2022-08-30T07:16:50.913Z,19.24
2022-08-30T07:18:57.439Z,19.21
2022-08-30T07:21:09.082Z,19.26
2022-08-30T07:23:11.025Z,19.30
2022-08-30T07:25:14.413Z,19.31
2022-08-30T07:27:16.583Z,19.33
2022-08-30T07:29:18.386Z,19.39
2022-08-30T07:31:22.409Z,19.45
2022-08-30T07:33:24.115Z,19.47
2022-08-30T07:35:28.049Z,19.47
2022-08-30T07:37:31.304Z,19.46
2022-08-30T07:39:35.715Z,19.52
2022-08-30T07:41:41.854Z,19.51
2022-08-30T07:43:50.271Z,19.51
2022-08-30T07:45:52.239Z,19.57
2022-08-30T07:47:54.451Z,19.52
2022-08-30T07:50:00.597Z,19.59
2022-08-30T07:52:02.597Z,19.62
2022-08-30T07:54:07.570Z,19.62
2022-08-30T07:56:12.327Z,19.68
2022-08-30T07:58:14.632Z,19.74
2022-08-30T08:00:17.676Z,19.78
2022-08-30T08:02:22.233Z,19.85
2022-08-30T08:04:24.378Z,19.86
2022-08-30T08:06:29.809Z,19.85
2022-08-30T08:08:40.765Z,19.93
2022-08-30T08:10:43.204Z,19.94
2022-08-30T08:12:48.408Z,20.00
2022-08-30T08:14:52.465Z,20.01
2022-08-30T08:16:54.603Z,20.06
2022-08-30T08:18:59.098Z,20.10
2022-08-30T08:21:02.872Z,20.12
2022-08-30T08:23:06.232Z,20.13
2022-08-30T08:25:09.295Z,20.06
2022-08-30T08:27:14.858Z,20.17
2022-08-30T08:29:16.603Z,20.23
2022-08-30T08:31:33.669Z,20.29
2022-08-30T08:33:36.125Z,20.32
2022-08-30T08:35:37.978Z,20.38
2022-08-30T08:37:41.763Z,20.42
2022-08-30T08:39:46.616Z,20.45
2022-08-30T08:41:58.544Z,20.53
2022-08-30T08:44:12.810Z,20.58
2022-08-30T08:46:31.693Z,20.58
2022-08-30T08:49:00.067Z,20.64
2022-08-30T08:51:32.645Z,20.64
2022-08-30T08:53:47.283Z,20.75
2022-08-30T08:55:52.778Z,20.82
2022-08-30T08:57:54.487Z,20.94
2022-08-30T08:59:58.475Z,20.93
2022-08-30T09:02:04.086Z,21.01
2022-08-30T09:04:12.164Z,21.10
2022-08-30T09:06:35.164Z,21.13
2022-08-30T09:08:41.215Z,21.27
2022-08-30T09:11:06.902Z,21.31
2022-08-30T09:13:08.647Z,21.41
2022-08-30T09:15:29.489Z,21.45
2022-08-30T09:17:53.173Z,21.57
2022-08-30T09:19:55.560Z,21.55
2022-08-30T09:21:59.926Z,21.65
2022-08-30T09:24:12.442Z,21.61
2022-08-30T09:26:14.378Z,21.72
2022-08-30T09:28:22.413Z,21.80
2022-08-30T09:30:33.197Z,21.80
2022-08-30T09:32:41.398Z,21.90
2022-08-30T09:34:44.189Z,22.02
2022-08-30T09:36:55.637Z,22.09
2022-08-30T09:39:05.052Z,22.09
2022-08-30T09:41:26.635Z,22.25
2022-08-30T09:43:32.307Z,22.38
2022-08-30T09:45:44.409Z,22.42
2022-08-30T09:47:46.144Z,22.54
2022-08-30T09:49:58.202Z,22.63
2022-08-30T09:52:25.383Z,22.67
2022-08-30T09:54:39.682Z,22.72
2022-08-30T09:56:56.739Z,22.80
2022-08-30T09:59:23.612Z,22.78
2022-08-30T10:01:33.449Z,22.89
2022-08-30T10:04:00.071Z,22.97
2022-08-30T10:06:08.563Z,23.01
2022-08-30T10:09:02.256Z,23.05
2022-08-30T10:11:08.202Z,22.95
2022-08-30T10:13:44.944Z,23.17
2022-08-30T10:16:13.145Z,23.22
2022-08-30T10:18:14.853Z,23.23
2022-08-30T10:20:37.098Z,23.31
2022-08-30T10:23:12.693Z,23.39
2022-08-30T10:25:23.543Z,23.46
2022-08-30T10:27:29.460Z,23.47
2022-08-30T10:30:15.059Z,23.54
2022-08-30T10:32:31.744Z,23.64
2022-08-30T10:34:42.177Z,23.72
2022-08-30T10:36:57.931Z,23.80
2022-08-30T10:39:05.203Z,23.95
2022-08-30T10:41:35.832Z,24.07
2022-08-30T10:44:10.737Z,24.25
2022-08-30T10:46:27.856Z,24.43
2022-08-30T10:48:36.534Z,24.48
2022-08-30T10:50:47.409Z,24.62
2022-08-30T10:53:21.796Z,24.61
2022-08-30T10:55:32.048Z,24.63
2022-08-30T10:57:34.962Z,24.53
2022-08-30T10:59:48.423Z,24.64
2022-08-30T11:02:25.667Z,24.71
2022-08-30T11:05:00.679Z,24.86
2022-08-30T11:07:11.163Z,24.90
2022-08-30T11:09:32.700Z,24.96
2022-08-30T11:11:58.950Z,25.25
2022-08-30T11:14:08.425Z,25.36
2022-08-30T11:16:16.704Z,25.41
2022-08-30T11:18:19.319Z,25.55
2022-08-30T11:20:41.847Z,25.78
2022-08-30T11:23:06.378Z,25.79
2022-08-30T11:25:16.167Z,25.92
2022-08-30T11:27:51.537Z,26.09
2022-08-30T11:29:53.966Z,26.25
2022-08-30T11:32:14.784Z,26.40
2022-08-30T11:34:54.052Z,26.43
2022-08-30T11:36:56.057Z,26.39
2022-08-30T11:39:09.210Z,26.36
2022-08-30T11:41:30.578Z,26.39
2022-08-30T11:43:36.886Z,26.32
2022-08-30T11:45:52.299Z,26.31
2022-08-30T11:48:18.916Z,26.29
2022-08-30T11:50:37.256Z,26.25
2022-08-30T11:52:46.859Z,26.22
2022-08-30T11:55:06.926Z,26.00
2022-08-30T11:57:36.339Z,26.08
2022-08-30T11:59:54.240Z,26.05
2022-08-30T12:01:58.078Z,26.06
2022-08-30T12:04:33.941Z,26.06
2022-08-30T12:06:50.521Z,26.13
2022-08-30T12:08:57.927Z,26.17
2022-08-30T12:11:27.316Z,26.28
2022-08-30T12:13:38.139Z,26.33
2022-08-30T12:15:57.747Z,26.35
2022-08-30T12:18:20.114Z,26.31
2022-08-30T12:20:26.303Z,26.42
2022-08-30T12:22:38.741Z,26.47
2022-08-30T12:24:47.887Z,26.51
2022-08-30T12:26:51.436Z,26.52
2022-08-30T12:29:10.942Z,26.54
2022-08-30T12:31:23.134Z,26.57
2022-08-30T12:33:41.281Z,26.51
2022-08-30T12:35:44.582Z,26.49
2022-08-30T12:38:02.860Z,26.41
2022-08-30T12:40:25.232Z,26.50
2022-08-30T12:42:29.788Z,26.56
2022-08-30T12:44:35.536Z,26.68
2022-08-30T12:46:38.456Z,26.75
2022-08-30T12:48:41.528Z,26.76
2022-08-30T12:50:54.025Z,26.84
2022-08-30T12:53:03.083Z,26.82
2022-08-30T12:55:24.489Z,26.79
2022-08-30T12:57:43.054Z,26.74
2022-08-30T12:59:58.494Z,26.71
2022-08-30T13:02:43.567Z,26.54
2022-08-30T13:04:49.690Z,26.37
2022-08-30T13:06:58.521Z,26.31
2022-08-30T13:09:04.054Z,26.24
2022-08-30T13:11:29.999Z,26.14
2022-08-30T13:13:52.217Z,26.05
2022-08-30T13:15:56.530Z,26.03
2022-08-30T13:18:30.977Z,25.90
2022-08-30T13:20:33.200Z,25.95
2022-08-30T13:22:40.778Z,25.87
2022-08-30T13:24:45.142Z,25.84
2022-08-30T13:26:52.701Z,25.86
2022-08-30T13:28:59.105Z,25.89
2022-08-30T13:31:01.871Z,25.94
2022-08-30T13:33:06.399Z,25.93
2022-08-30T13:35:10.429Z,26.05
2022-08-30T13:39:43.860Z,26.33
2022-08-30T13:41:45.804Z,26.54
2022-08-30T13:46:17.884Z,26.86
2022-08-30T13:48:25.093Z,26.90
2022-08-30T13:50:27.443Z,26.85
2022-08-30T13:52:30.854Z,26.83
2022-08-30T13:54:33.264Z,26.77
2022-08-30T13:56:36.435Z,26.68
2022-08-30T13:58:38.614Z,26.64
2022-08-30T14:00:40.581Z,26.57
2022-08-30T14:02:46.322Z,26.71
2022-08-30T14:04:57.697Z,26.88
2022-08-30T14:07:14.038Z,27.17
2022-08-30T14:09:23.342Z,27.38
2022-08-30T14:11:28.488Z,27.23
2022-08-30T14:13:30.488Z,27.23
2022-08-30T14:15:44.117Z,27.17
2022-08-30T14:17:48.092Z,26.80
2022-08-30T14:19:50.096Z,26.76
2022-08-30T14:21:52.377Z,26.80
2022-08-30T14:23:58.033Z,26.58
2022-08-30T14:26:01.988Z,26.44
2022-08-30T14:28:04.766Z,26.39
2022-08-30T14:30:21.175Z,26.25
2022-08-30T14:32:23.784Z,26.05
2022-08-30T14:34:26.614Z,26.05
2022-08-30T14:36:32.966Z,25.93
2022-08-30T14:38:36.353Z,25.90
2022-08-30T14:40:39.203Z,25.84
2022-08-30T14:42:43.943Z,25.78
2022-08-30T14:44:56.330Z,25.77
2022-08-30T14:47:03.263Z,25.77
2022-08-30T14:49:05.859Z,25.73
2022-08-30T14:51:27.413Z,25.75
2022-08-30T14:53:30.609Z,25.58
2022-08-30T14:55:38.070Z,25.56
2022-08-30T14:57:42.273Z,25.73
2022-08-30T14:59:45.423Z,25.71
2022-08-30T15:01:48.600Z,25.76
2022-08-30T15:03:52.097Z,25.82
2022-08-30T15:05:54.701Z,25.77
2022-08-30T15:08:00.093Z,25.79
2022-08-30T15:10:03.124Z,25.89
2022-08-30T15:12:05.628Z,25.87
2022-08-30T15:14:15.842Z,25.84
2022-08-30T15:16:31.120Z,25.86
2022-08-30T15:18:34.080Z,25.93
2022-08-30T15:20:38.675Z,26.07
2022-08-30T15:22:41.427Z,26.21
2022-08-30T15:24:49.009Z,26.41
2022-08-30T15:26:55.663Z,26.53
2022-08-30T15:28:57.794Z,26.57
2022-08-30T15:30:59.560Z,26.72
2022-08-30T15:33:04.522Z,26.89
2022-08-30T15:35:08.299Z,27.19
2022-08-30T15:37:10.134Z,27.43
2022-08-30T15:39:14.530Z,27.60
2022-08-30T15:41:16.295Z,27.80
2022-08-30T15:43:20.056Z,27.96
2022-08-30T15:45:23.003Z,28.16
2022-08-30T15:47:25.078Z,28.32
2022-08-30T15:49:27.975Z,28.43
2022-08-30T15:51:41.701Z,28.32
2022-08-30T15:53:45.749Z,28.38
2022-08-30T15:55:48.424Z,28.56
2022-08-30T15:57:54.382Z,28.46
2022-08-30T15:59:56.367Z,28.69
2022-08-30T16:01:59.661Z,28.75
2022-08-30T16:04:02.112Z,28.81
2022-08-30T16:06:04.026Z,28.90
2022-08-30T16:08:09.297Z,28.94
2022-08-30T16:10:15.379Z,28.98
2022-08-30T16:12:23.396Z,28.84
2022-08-30T16:14:29.253Z,28.97
2022-08-30T16:16:35.696Z,28.91
2022-08-30T16:18:40.681Z,28.80
2022-08-30T16:20:45.473Z,28.71
2022-08-30T16:22:47.947Z,28.68
2022-08-30T16:24:49.851Z,28.69
2022-08-30T16:26:54.134Z,28.77
2022-08-30T16:28:59.071Z,28.74
2022-08-30T16:31:02.999Z,28.81
2022-08-30T16:33:07.298Z,28.59
2022-08-30T16:35:14.771Z,28.64
2022-08-30T16:37:16.626Z,28.64
2022-08-30T16:39:19.810Z,28.60
2022-08-30T16:41:23.899Z,28.56
2022-08-30T16:43:25.625Z,28.61
2022-08-30T16:45:34.271Z,28.59
2022-08-30T16:47:38.561Z,28.60
2022-08-30T16:49:40.501Z,28.47
2022-08-30T16:51:45.737Z,28.45
2022-08-30T16:53:49.632Z,28.26
2022-08-30T16:55:52.698Z,28.28
2022-08-30T16:57:56.369Z,28.23
2022-08-30T17:00:02.233Z,28.17
2022-08-30T17:02:06.045Z,28.11
2022-08-30T17:04:09.509Z,27.95
2022-08-30T17:06:13.486Z,27.81
2022-08-30T17:08:15.395Z,27.60
2022-08-30T17:10:22.967Z,27.52
2022-08-30T17:12:26.579Z,27.46
2022-08-30T17:14:29.168Z,27.32
2022-08-30T17:16:33.100Z,27.24
2022-08-30T17:18:38.125Z,27.17
2022-08-30T17:20:39.866Z,27.10
2022-08-30T17:22:51.427Z,27.01
2022-08-30T17:24:56.759Z,26.96
2022-08-30T17:26:59.000Z,26.88
2022-08-30T17:29:03.896Z,26.80
2022-08-30T17:31:08.594Z,26.66
2022-08-30T17:33:11.713Z,26.58
2022-08-30T17:35:15.668Z,26.52
2022-08-30T17:37:21.311Z,26.38
2022-08-30T17:39:25.322Z,26.33
2022-08-30T17:41:37.781Z,26.29
2022-08-30T17:43:48.108Z,26.15
2022-08-30T17:45:50.369Z,26.10
2022-08-30T17:48:00.431Z,26.02
2022-08-30T17:50:06.838Z,25.91
2022-08-30T17:52:11.662Z,25.82
2022-08-30T17:54:21.362Z,25.75
2022-08-30T17:56:35.241Z,25.63
2022-08-30T17:58:38.160Z,25.51
2022-08-30T18:00:42.390Z,25.50
2022-08-30T18:02:47.676Z,25.41
2022-08-30T18:04:50.327Z,25.38
2022-08-30T18:06:53.297Z,25.22
2022-08-30T18:09:15.168Z,25.18
2022-08-30T18:11:16.944Z,25.15
2022-08-30T18:13:22.415Z,25.09
2022-08-30T18:15:28.751Z,25.06
2022-08-30T18:17:31.363Z,24.93
2022-08-30T18:19:46.272Z,24.96
2022-08-30T18:21:52.068Z,24.93
2022-08-30T18:23:54.030Z,24.90
2022-08-30T18:26:06.016Z,24.82
2022-08-30T18:28:19.871Z,24.82
2022-08-30T18:30:23.830Z,24.75
2022-08-30T18:32:31.348Z,24.73
2022-08-30T18:34:42.416Z,24.62
2022-08-30T18:36:47.372Z,24.61
2022-08-30T18:38:51.201Z,24.61
2022-08-30T18:41:11.146Z,24.59
2022-08-30T18:43:21.203Z,24.58
2022-08-30T18:45:27.012Z,24.56
2022-08-30T18:47:33.140Z,24.56
2022-08-30T18:49:40.791Z,24.53
2022-08-30T18:51:42.514Z,24.51
2022-08-30T18:54:00.630Z,24.43
2022-08-30T18:56:03.327Z,24.43
2022-08-30T18:58:05.816Z,24.25
2022-08-30T19:00:16.962Z,24.19
2022-08-30T19:02:27.747Z,24.19
2022-08-30T19:04:35.065Z,24.08
2022-08-30T19:06:50.849Z,23.95
2022-08-30T19:08:57.910Z,24.02
2022-08-30T19:11:04.972Z,23.96
2022-08-30T19:13:15.463Z,23.98
2022-08-30T19:15:26.311Z,23.93
2022-08-30T19:17:28.370Z,23.88
2022-08-30T19:19:35.241Z,23.89
2022-08-30T19:21:41.324Z,23.93
2022-08-30T19:23:43.329Z,23.90
2022-08-30T19:25:55.562Z,23.87
2022-08-30T19:28:05.607Z,23.85
2022-08-30T19:30:12.225Z,23.80
2022-08-30T19:32:15.389Z,23.66
2022-08-30T19:34:19.349Z,23.63
2022-08-30T19:36:24.618Z,23.68
2022-08-30T19:38:29.130Z,23.71
2022-08-30T19:40:33.168Z,23.51
2022-08-30T19:42:39.468Z,23.52
2022-08-30T19:44:48.893Z,23.54
2022-08-30T19:46:56.441Z,23.54
2022-08-30T19:48:58.609Z,23.53
2022-08-30T19:51:08.790Z,23.55
2022-08-30T19:53:27.588Z,23.51
2022-08-30T19:55:31.502Z,23.52
2022-08-30T19:57:34.243Z,23.48
2022-08-30T19:59:40.403Z,23.50
2022-08-30T20:01:45.790Z,23.52
2022-08-30T20:03:49.525Z,23.38
2022-08-30T20:05:54.438Z,23.39
2022-08-30T20:08:00.885Z,23.34
2022-08-30T20:10:09.394Z,23.31
2022-08-30T20:12:14.621Z,23.33
2022-08-30T20:14:21.397Z,23.31
2022-08-30T20:18:57.372Z,23.23
2022-08-30T20:21:02.818Z,23.24
2022-08-30T20:23:06.213Z,23.23
2022-08-30T20:25:33.757Z,23.21
2022-08-30T20:27:39.758Z,23.23
2022-08-30T20:29:42.342Z,23.22
2022-08-30T20:31:54.278Z,23.20
2022-08-30T20:33:56.610Z,23.15
2022-08-30T20:36:02.659Z,23.15
2022-08-30T20:38:13.825Z,23.12
2022-08-30T20:40:18.465Z,23.10
2022-08-30T20:42:20.677Z,23.08
2022-08-30T20:44:27.187Z,22.99
2022-08-30T20:46:38.804Z,22.94
2022-08-30T20:48:41.908Z,22.91
2022-08-30T20:50:45.900Z,22.81
2022-08-30T20:52:50.737Z,22.74
2022-08-30T20:54:54.569Z,22.73
2022-08-30T20:56:57.748Z,22.64
2022-08-30T20:59:04.994Z,22.68
2022-08-30T21:01:09.831Z,22.72
2022-08-30T21:03:25.857Z,22.71
2022-08-30T21:05:29.760Z,22.68
2022-08-30T21:07:31.677Z,22.63
2022-08-30T21:09:39.982Z,22.60
2022-08-30T21:11:53.150Z,22.56
2022-08-30T21:13:55.216Z,22.55
2022-08-30T21:16:00.602Z,22.57
2022-08-30T21:18:18.062Z,22.53
2022-08-30T21:20:20.662Z,22.42
2022-08-30T21:22:26.576Z,22.45
2022-08-30T21:24:48.130Z,22.49
2022-08-30T21:26:54.130Z,22.43
2022-08-30T21:28:56.080Z,22.44
2022-08-30T21:31:26.884Z,22.49
2022-08-30T21:33:28.926Z,22.34
2022-08-30T21:35:49.541Z,22.38
2022-08-30T21:37:58.147Z,22.26
2022-08-30T21:40:02.320Z,22.21
2022-08-30T21:42:04.636Z,22.30
2022-08-30T21:44:16.978Z,22.27
2022-08-30T21:46:24.396Z,22.31
2022-08-30T21:48:26.464Z,22.16
2022-08-30T21:50:38.384Z,22.18
2022-08-30T21:52:44.059Z,22.24
2022-08-30T21:54:46.158Z,22.09
2022-08-30T21:56:57.142Z,22.07
2022-08-30T21:59:00.728Z,22.04
2022-08-30T22:01:21.268Z,22.08
2022-08-30T22:03:23.056Z,22.09
2022-08-30T22:05:27.320Z,22.08
2022-08-30T22:07:30.026Z,22.02
2022-08-30T22:10:00.591Z,21.99
2022-08-30T22:12:06.982Z,21.99
2022-08-30T22:14:22.960Z,21.87
2022-08-30T22:16:25.301Z,21.85
2022-08-30T22:18:28.760Z,21.80
2022-08-30T22:20:43.323Z,21.75
2022-08-30T22:22:46.336Z,21.71
2022-08-30T22:24:51.873Z,21.73
2022-08-30T22:26:56.408Z,21.73
2022-08-30T22:28:58.259Z,21.72
2022-08-30T22:31:04.433Z,21.65
2022-08-30T22:33:07.287Z,21.73
2022-08-30T22:35:09.600Z,21.74
2022-08-30T22:37:15.207Z,21.67
2022-08-30T22:39:18.515Z,21.69
2022-08-30T22:41:25.524Z,21.70
2022-08-30T22:43:38.711Z,21.72
2022-08-30T22:45:45.383Z,21.61
2022-08-30T22:47:47.783Z,21.65
2022-08-30T22:49:53.976Z,21.55
2022-08-30T22:51:58.137Z,21.53
2022-08-30T22:54:01.332Z,21.56
2022-08-30T22:56:19.585Z,21.51
2022-08-30T22:58:22.291Z,21.52
2022-08-30T23:00:24.503Z,21.56
2022-08-30T23:02:27.648Z,21.51
2022-08-30T23:04:35.782Z,21.47
2022-08-30T23:06:40.469Z,21.50
2022-08-30T23:08:45.614Z,21.45
2022-08-30T23:10:52.589Z,21.25
2022-08-30T23:12:55.868Z,21.27
2022-08-30T23:15:02.157Z,21.29
2022-08-30T23:17:07.412Z,21.19
2022-08-30T23:19:11.226Z,21.27
2022-08-30T23:21:29.491Z,21.25
2022-08-30T23:23:53.028Z,21.23
2022-08-30T23:26:23.596Z,21.17
2022-08-30T23:28:43.850Z,21.16
2022-08-30T23:31:05.979Z,21.13
2022-08-30T23:33:29.526Z,21.09
2022-08-30T23:35:51.441Z,21.09
2022-08-30T23:38:11.931Z,21.06
2022-08-30T23:40:33.345Z,21.01
2022-08-30T23:45:37.039Z,21.04
2022-08-30T23:47:57.418Z,20.96
2022-08-30T23:50:20.651Z,20.89
2022-08-30T23:52:44.918Z,20.85
2022-08-30T23:55:12.046Z,20.87
2022-08-30T23:57:32.501Z,20.85
2022-08-30T23:59:54.131Z,20.79
